Date,TemperatureHighF,TemperatureAvgF,TemperatureLowF,DewpointHighF,DewpointAvgF,DewpointLowF,HumidityHigh,HumidityAvg,HumidityLow,PressureMaxIn,PressureMinIn,WindSpeedMaxMPH,WindSpeedAvgMPH,GustSpeedMaxMPH,PrecipitationSumIn
2012-12-1,42,34,24,41,31,20,95,92,84,30.43,29.90,20,8,24,0.37
2012-12-2,46,42,39,45,40,38,97,95,93,30.11,29.79,11,5,16,0.42
2012-12-3,50,42,32,50,41,31,97,95,92,30.14,29.68,18,7,29,0.00
2012-12-4,56,42,28,55,37,22,97,83,69,30.09,29.66,28,10,39,0.08
2012-12-5,30,25,17,24,18,15,91,75,64,30.45,30.11,26,9,30,0.00
2012-12-6,38,34,22,33,28,19,91,79,76,30.38,29.87,17,6,28,0.00
2012-12-7,40,36,32,37,31,26,90,79,71,30.04,29.86,17,7,23,0.00
2012-12-8,32,31,30,28,26,22,89,81,69,30.24,29.99,15,7,18,0.00
2012-12-9,30,25,23,24,21,17,92,83,73,30.35,29.86,26,12,32,0.00
2012-12-10,24,22,18,22,17,14,92,83,74,29.95,29.69,20,12,24,0.00
2012-12-11,32,24,17,26,20,14,90,83,74,30.05,29.95,19,5,27,0.00
2012-12-12,37,28,21,32,23,17,93,82,71,30.31,29.99,13,5,23,0.00
2012-12-13,43,39,34,34,31,28,87,74,64,30.24,30.03,16,6,26,0.03
2012-12-14,35,30,25,31,25,21,87,81,75,30.35,30.06,21,8,25,0.00
2012-12-15,36,29,24,34,27,22,95,91,85,30.32,29.81,15,9,22,0.17
2012-12-16,38,35,33,37,34,32,97,96,94,29.81,29.57,15,6,22,0.02
2012-12-17,40,36,31,38,34,30,97,93,83,29.70,29.59,14,4,17,0.08
2012-12-18,36,34,30,34,32,29,95,92,87,29.80,29.68,7,3,9,0.00
2012-12-19,35,30,26,32,28,24,96,93,85,30.17,29.80,10,3,12,0.01
2012-12-20,32,30,27,31,29,25,97,94,88,30.17,29.39,32,13,43,0.00
2012-12-21,29,27,24,27,24,20,96,89,81,29.87,29.37,41,23,46,0.00
2012-12-22,28,25,21,24,20,16,91,82,75,30.01,29.87,32,14,36,0.00
2012-12-23,28,24,20,25,19,13,92,82,72,30.00,29.82,32,10,39,0.00
2012-12-24,28,26,25,24,21,19,92,81,72,30.10,30.00,11,5,17,0.00
2012-12-25,27,25,22,23,19,15,91,78,72,30.46,30.11,18,8,22,0.00
2012-12-26,25,21,17,21,16,13,87,82,76,30.45,30.19,21,10,23,0.00
2012-12-27,24,19,10,16,13,7,87,76,63,30.22,30.16,14,9,19,0.00
2012-12-28,21,18,9,18,15,6,93,89,85,30.22,30.09,10,4,13,0.00
2012-12-29,24,19,16,18,15,13,92,86,72,30.08,29.94,12,6,15,0.00
2012-12-30,28,21,9,23,17,6,91,85,79,30.22,30.05,12,3,16,0.00
2012-12-31,34,26,17,30,22,10,90,82,73,30.07,29.82,27,12,35,0.00